MET'MAP v2.0
soon released !

Expected late october,
this new version will be
more efficient, smarter,
and hosted on a brand new
server x3 powerfull...
...and still free !


Not compatible ?
Try the mobile version !

LOG IN : | Subscribe | Disclaimer | Who is Orbifly ? |
ICAO code :

TAF - ETSN Neuburg AB - 14 Nov 2019 22:32 UTC
Data Sources :     NOAA   


- Airport Elevation : 1249 ft
- No reported NOTAMs.


ETSN - Neuburg AB

Latest METAR recorded : 2015/08/11 07:20 ETSN 110720Z 27009KT 9999 FEW090 SCT300 22/17 Q1016 BLACKBLU+
TAF TAF ETSN
Valid from the 14 at 21:00 until the 15 at 06:00 UTC


142000Z 1421/1506 07007KT 8000 NSW BKN006 BKN180
TEMPO 1421/1503 09010KT 9999 NSW SCT007 BKN200 BY ETGL

Source NOAA


MET'MAP, your aeronautical weather chart ! - Copyright ORBIFLY December 2007

Programming & Development : Alexandra Zaïnal
Co-Developer : Marc-Olivier Méhu
Technical & hardware support : Manuel Goepfert
Concept & Financing : Baudouin d'Aumeries